sensor_id;sensor_type;location;lat;lon;timestamp;temperature;humidity
14489;DHT22;7330;50.804;4.550;2023-03-01T00:01:00;2.60;83.90
14489;DHT22;7330;50.804;4.550;2023-03-01T00:03:28;2.60;83.90
14489;DHT22;7330;50.804;4.550;2023-03-01T00:05:55;2.60;84.10
14489;DHT22;7330;50.804;4.550;2023-03-01T00:10:49;2.60;84.20
14489;DHT22;7330;50.804;4.550;2023-03-01T00:13:15;2.60;84.60
14489;DHT22;7330;50.804;4.550;2023-03-01T00:18:09;2.50;84.50
14489;DHT22;7330;50.804;4.550;2023-03-01T00:20:37;2.50;84.30
14489;DHT22;7330;50.804;4.550;2023-03-01T00:23:04;2.50;84.60
14489;DHT22;7330;50.804;4.550;2023-03-01T00:25:31;2.50;84.70
14489;DHT22;7330;50.804;4.550;2023-03-01T00:27:57;2.40;85.00
14489;DHT22;7330;50.804;4.550;2023-03-01T00:32:51;2.40;85.30
14489;DHT22;7330;50.804;4.550;2023-03-01T00:35:18;2.40;85.40
14489;DHT22;7330;50.804;4.550;2023-03-01T00:37:46;2.40;85.50
14489;DHT22;7330;50.804;4.550;2023-03-01T00:40:13;2.40;85.60
14489;DHT22;7330;50.804;4.550;2023-03-01T00:45:08;2.40;85.80
14489;DHT22;7330;50.804;4.550;2023-03-01T00:47:35;2.30;85.90
14489;DHT22;7330;50.804;4.550;2023-03-01T00:54:57;2.30;86.10
14489;DHT22;7330;50.804;4.550;2023-03-01T00:57:24;2.20;86.00
14489;DHT22;7330;50.804;4.550;2023-03-01T00:59:51;2.20;86.10
14489;DHT22;7330;50.804;4.550;2023-03-01T01:04:45;2.20;86.40
14489;DHT22;7330;50.804;4.550;2023-03-01T01:07:12;2.20;86.50
14489;DHT22;7330;50.804;4.550;2023-03-01T01:12:08;2.10;86.70
14489;DHT22;7330;50.804;4.550;2023-03-01T01:19:29;2.00;87.20
14489;DHT22;7330;50.804;4.550;2023-03-01T01:21:55;2.00;87.30
14489;DHT22;7330;50.804;4.550;2023-03-01T01:24:22;2.00;87.30
14489;DHT22;7330;50.804;4.550;2023-03-01T01:26:49;2.10;87.50
14489;DHT22;7330;50.804;4.550;2023-03-01T01:29:17;2.00;87.50
14489;DHT22;7330;50.804;4.550;2023-03-01T01:31:44;2.10;87.50
14489;DHT22;7330;50.804;4.550;2023-03-01T01:34:13;2.00;87.60
14489;DHT22;7330;50.804;4.550;2023-03-01T01:39:06;2.00;87.90
14489;DHT22;7330;50.804;4.550;2023-03-01T01:41:39;2.00;88.10
14489;DHT22;7330;50.804;4.550;2023-03-01T01:44:10;2.00;87.90
14489;DHT22;7330;50.804;4.550;2023-03-01T01:46:39;2.00;88.00
14489;DHT22;7330;50.804;4.550;2023-03-01T01:49:07;2.00;87.80
14489;DHT22;7330;50.804;4.550;2023-03-01T01:51:39;2.00;88.10
14489;DHT22;7330;50.804;4.550;2023-03-01T01:54:08;2.00;87.80
14489;DHT22;7330;50.804;4.550;2023-03-01T01:59:03;2.00;88.10
14489;DHT22;7330;50.804;4.550;2023-03-01T02:01:30;2.00;88.20
14489;DHT22;7330;50.804;4.550;2023-03-01T02:06:27;2.00;88.20
14489;DHT22;7330;50.804;4.550;2023-03-01T02:08:56;2.00;88.40
14489;DHT22;7330;50.804;4.550;2023-03-01T02:13:51;1.90;88.40
14489;DHT22;7330;50.804;4.550;2023-03-01T02:19:07;1.90;89.00
14489;DHT22;7330;50.804;4.550;2023-03-01T02:21:40;1.90;88.90
14489;DHT22;7330;50.804;4.550;2023-03-01T02:29:04;1.90;89.00
14489;DHT22;7330;50.804;4.550;2023-03-01T02:34:07;1.80;88.90
14489;DHT22;7330;50.804;4.550;2023-03-01T02:36:36;1.80;88.90
14489;DHT22;7330;50.804;4.550;2023-03-01T02:41:32;1.80;88.90
14489;DHT22;7330;50.804;4.550;2023-03-01T02:44:01;1.80;88.90
14489;DHT22;7330;50.804;4.550;2023-03-01T02:46:29;1.70;89.00
14489;DHT22;7330;50.804;4.550;2023-03-01T02:48:56;1.70;89.10
14489;DHT22;7330;50.804;4.550;2023-03-01T02:51:29;1.70;89.20
14489;DHT22;7330;50.804;4.550;2023-03-01T02:54:01;1.70;89.20
14489;DHT22;7330;50.804;4.550;2023-03-01T02:56:32;1.70;89.40
14489;DHT22;7330;50.804;4.550;2023-03-01T03:08:57;1.60;89.90
14489;DHT22;7330;50.804;4.550;2023-03-01T03:11:24;1.60;89.90
14489;DHT22;7330;50.804;4.550;2023-03-01T03:13:50;1.60;90.10
14489;DHT22;7330;50.804;4.550;2023-03-01T03:16:17;1.60;90.00
14489;DHT22;7330;50.804;4.550;2023-03-01T03:18:44;1.60;90.10
14489;DHT22;7330;50.804;4.550;2023-03-01T03:23:38;1.50;90.20
14489;DHT22;7330;50.804;4.550;2023-03-01T03:26:06;1.50;90.20
14489;DHT22;7330;50.804;4.550;2023-03-01T03:28:33;1.40;90.20
14489;DHT22;7330;50.804;4.550;2023-03-01T03:31:00;1.40;90.50
14489;DHT22;7330;50.804;4.550;2023-03-01T03:33:28;1.40;90.50
14489;DHT22;7330;50.804;4.550;2023-03-01T03:35:55;1.40;90.60
14489;DHT22;7330;50.804;4.550;2023-03-01T03:38:22;1.40;90.50
14489;DHT22;7330;50.804;4.550;2023-03-01T03:40:50;1.30;90.60
14489;DHT22;7330;50.804;4.550;2023-03-01T03:45:45;1.30;90.60
14489;DHT22;7330;50.804;4.550;2023-03-01T03:48:12;1.30;90.60
14489;DHT22;7330;50.804;4.550;2023-03-01T03:50:39;1.30;90.60
14489;DHT22;7330;50.804;4.550;2023-03-01T03:53:06;1.30;90.60
14489;DHT22;7330;50.804;4.550;2023-03-01T03:55:34;1.30;90.70
14489;DHT22;7330;50.804;4.550;2023-03-01T03:58:05;1.30;90.70
14489;DHT22;7330;50.804;4.550;2023-03-01T04:00:33;1.30;90.70
14489;DHT22;7330;50.804;4.550;2023-03-01T04:03:01;1.20;90.70
14489;DHT22;7330;50.804;4.550;2023-03-01T04:05:28;1.20;90.80
14489;DHT22;7330;50.804;4.550;2023-03-01T04:12:59;1.20;91.00
14489;DHT22;7330;50.804;4.550;2023-03-01T04:15:26;1.20;91.00
14489;DHT22;7330;50.804;4.550;2023-03-01T04:17:54;1.20;91.00
14489;DHT22;7330;50.804;4.550;2023-03-01T04:20:23;1.20;91.10
14489;DHT22;7330;50.804;4.550;2023-03-01T04:22:51;1.20;91.10
14489;DHT22;7330;50.804;4.550;2023-03-01T04:27:45;1.10;91.10
14489;DHT22;7330;50.804;4.550;2023-03-01T04:30:11;1.10;91.20
14489;DHT22;7330;50.804;4.550;2023-03-01T04:35:06;1.10;91.40
14489;DHT22;7330;50.804;4.550;2023-03-01T04:37:34;1.10;91.40
14489;DHT22;7330;50.804;4.550;2023-03-01T04:40:01;1.10;91.40
14489;DHT22;7330;50.804;4.550;2023-03-01T04:42:40;1.00;91.40
14489;DHT22;7330;50.804;4.550;2023-03-01T04:45:08;1.00;91.70
14489;DHT22;7330;50.804;4.550;2023-03-01T04:47:38;0.90;91.70
14489;DHT22;7330;50.804;4.550;2023-03-01T04:50:06;0.90;91.70
14489;DHT22;7330;50.804;4.550;2023-03-01T04:52:34;1.00;91.70
14489;DHT22;7330;50.804;4.550;2023-03-01T04:55:01;0.90;91.70
14489;DHT22;7330;50.804;4.550;2023-03-01T04:57:28;0.90;91.90
14489;DHT22;7330;50.804;4.550;2023-03-01T04:59:55;0.90;92.10
14489;DHT22;7330;50.804;4.550;2023-03-01T05:02:22;0.90;92.10
14489;DHT22;7330;50.804;4.550;2023-03-01T05:04:49;0.90;92.10
14489;DHT22;7330;50.804;4.550;2023-03-01T05:07:15;0.90;92.10
14489;DHT22;7330;50.804;4.550;2023-03-01T05:09:46;0.80;92.20
14489;DHT22;7330;50.804;4.550;2023-03-01T05:14:39;0.80;92.20
14489;DHT22;7330;50.804;4.550;2023-03-01T05:17:06;0.80;92.20
14489;DHT22;7330;50.804;4.550;2023-03-01T05:19:33;0.80;92.40
14489;DHT22;7330;50.804;4.550;2023-03-01T05:22:00;0.80;92.50
14489;DHT22;7330;50.804;4.550;2023-03-01T05:26:58;0.80;92.50
14489;DHT22;7330;50.804;4.550;2023-03-01T05:29:26;0.80;92.30
14489;DHT22;7330;50.804;4.550;2023-03-01T05:34:22;0.80;92.30
14489;DHT22;7330;50.804;4.550;2023-03-01T05:36:52;0.80;92.40
14489;DHT22;7330;50.804;4.550;2023-03-01T05:39:19;0.80;92.30
14489;DHT22;7330;50.804;4.550;2023-03-01T05:46:43;0.70;92.40
14489;DHT22;7330;50.804;4.550;2023-03-01T05:49:10;0.70;92.50
14489;DHT22;7330;50.804;4.550;2023-03-01T05:51:38;0.70;92.50
14489;DHT22;7330;50.804;4.550;2023-03-01T05:54:05;0.70;92.60
14489;DHT22;7330;50.804;4.550;2023-03-01T05:56:32;0.70;92.50
14489;DHT22;7330;50.804;4.550;2023-03-01T05:58:59;0.70;92.60
14489;DHT22;7330;50.804;4.550;2023-03-01T06:01:26;0.70;92.50
14489;DHT22;7330;50.804;4.550;2023-03-01T06:08:48;0.60;92.60
14489;DHT22;7330;50.804;4.550;2023-03-01T06:13:42;0.60;92.50
14489;DHT22;7330;50.804;4.550;2023-03-01T06:16:09;0.60;92.70
14489;DHT22;7330;50.804;4.550;2023-03-01T06:18:37;0.60;92.70
14489;DHT22;7330;50.804;4.550;2023-03-01T06:21:04;0.60;92.70
14489;DHT22;7330;50.804;4.550;2023-03-01T06:23:31;0.60;92.60
14489;DHT22;7330;50.804;4.550;2023-03-01T06:25:59;0.60;92.70
14489;DHT22;7330;50.804;4.550;2023-03-01T06:30:53;0.60;92.70
14489;DHT22;7330;50.804;4.550;2023-03-01T06:33:20;0.50;92.70
14489;DHT22;7330;50.804;4.550;2023-03-01T06:35:49;0.60;92.80
14489;DHT22;7330;50.804;4.550;2023-03-01T06:38:16;0.60;92.80
14489;DHT22;7330;50.804;4.550;2023-03-01T06:40:44;0.60;92.80
14489;DHT22;7330;50.804;4.550;2023-03-01T06:43:12;0.60;93.00
14489;DHT22;7330;50.804;4.550;2023-03-01T06:45:39;0.60;93.10
14489;DHT22;7330;50.804;4.550;2023-03-01T06:48:07;0.60;93.20
14489;DHT22;7330;50.804;4.550;2023-03-01T06:50:35;0.60;93.20
14489;DHT22;7330;50.804;4.550;2023-03-01T06:53:03;0.70;93.30
14489;DHT22;7330;50.804;4.550;2023-03-01T06:55:30;0.70;93.50
14489;DHT22;7330;50.804;4.550;2023-03-01T06:57:57;0.70;93.70
14489;DHT22;7330;50.804;4.550;2023-03-01T07:00:25;0.80;93.90
14489;DHT22;7330;50.804;4.550;2023-03-01T07:02:52;0.90;93.90
14489;DHT22;7330;50.804;4.550;2023-03-01T07:05:19;1.00;94.00
14489;DHT22;7330;50.804;4.550;2023-03-01T07:10:13;1.20;94.20
14489;DHT22;7330;50.804;4.550;2023-03-01T07:12:41;1.30;94.20
14489;DHT22;7330;50.804;4.550;2023-03-01T07:22:30;1.80;94.20
14489;DHT22;7330;50.804;4.550;2023-03-01T07:24:57;1.90;93.90
14489;DHT22;7330;50.804;4.550;2023-03-01T07:27:23;2.10;94.00
14489;DHT22;7330;50.804;4.550;2023-03-01T07:29:50;2.30;94.00
14489;DHT22;7330;50.804;4.550;2023-03-01T07:32:17;2.40;94.10
14489;DHT22;7330;50.804;4.550;2023-03-01T07:34:44;2.70;94.00
14489;DHT22;7330;50.804;4.550;2023-03-01T07:42:06;3.20;93.30
14489;DHT22;7330;50.804;4.550;2023-03-01T07:44:33;3.30;93.20
14489;DHT22;7330;50.804;4.550;2023-03-01T07:47:00;3.50;92.90
14489;DHT22;7330;50.804;4.550;2023-03-01T07:49:27;3.60;92.70
14489;DHT22;7330;50.804;4.550;2023-03-01T07:51:54;3.80;92.60
14489;DHT22;7330;50.804;4.550;2023-03-01T07:54:21;3.90;92.50
14489;DHT22;7330;50.804;4.550;2023-03-01T07:56:48;4.10;92.00
14489;DHT22;7330;50.804;4.550;2023-03-01T07:59:16;4.00;91.80
14489;DHT22;7330;50.804;4.550;2023-03-01T08:04:10;4.30;91.60
14489;DHT22;7330;50.804;4.550;2023-03-01T08:06:37;4.40;91.30
14489;DHT22;7330;50.804;4.550;2023-03-01T08:09:03;4.40;91.20
14489;DHT22;7330;50.804;4.550;2023-03-01T08:11:30;4.50;90.90
14489;DHT22;7330;50.804;4.550;2023-03-01T08:13:57;4.50;90.70
14489;DHT22;7330;50.804;4.550;2023-03-01T08:16:25;4.50;90.90
14489;DHT22;7330;50.804;4.550;2023-03-01T08:18:52;4.60;90.70
14489;DHT22;7330;50.804;4.550;2023-03-01T08:21:21;4.60;90.70
14489;DHT22;7330;50.804;4.550;2023-03-01T08:26:15;4.70;90.80
14489;DHT22;7330;50.804;4.550;2023-03-01T08:31:14;4.80;91.20
14489;DHT22;7330;50.804;4.550;2023-03-01T08:36:09;5.00;90.70
14489;DHT22;7330;50.804;4.550;2023-03-01T08:38:36;5.10;90.70
14489;DHT22;7330;50.804;4.550;2023-03-01T08:41:03;5.20;90.40
14489;DHT22;7330;50.804;4.550;2023-03-01T08:43:30;5.40;90.70
14489;DHT22;7330;50.804;4.550;2023-03-01T08:50:51;5.70;89.90
14489;DHT22;7330;50.804;4.550;2023-03-01T08:53:19;5.90;90.00
14489;DHT22;7330;50.804;4.550;2023-03-01T08:55:45;6.00;90.00
14489;DHT22;7330;50.804;4.550;2023-03-01T08:58:12;6.20;88.90
14489;DHT22;7330;50.804;4.550;2023-03-01T09:00:41;6.40;87.80
14489;DHT22;7330;50.804;4.550;2023-03-01T09:03:07;6.50;88.40
14489;DHT22;7330;50.804;4.550;2023-03-01T09:05:34;6.70;88.20
14489;DHT22;7330;50.804;4.550;2023-03-01T09:10:30;7.00;86.60
14489;DHT22;7330;50.804;4.550;2023-03-01T09:12:57;7.10;85.90
14489;DHT22;7330;50.804;4.550;2023-03-01T09:15:24;7.10;84.00
14489;DHT22;7330;50.804;4.550;2023-03-01T09:17:50;7.20;83.90
14489;DHT22;7330;50.804;4.550;2023-03-01T09:20:17;7.30;83.70
14489;DHT22;7330;50.804;4.550;2023-03-01T09:22:44;7.30;83.20
14489;DHT22;7330;50.804;4.550;2023-03-01T09:25:11;7.40;82.50
14489;DHT22;7330;50.804;4.550;2023-03-01T09:27:39;7.40;82.70
14489;DHT22;7330;50.804;4.550;2023-03-01T09:30:07;7.40;82.50
14489;DHT22;7330;50.804;4.550;2023-03-01T09:32:34;7.50;81.90
14489;DHT22;7330;50.804;4.550;2023-03-01T09:35:00;7.40;81.50
14489;DHT22;7330;50.804;4.550;2023-03-01T09:37:30;7.50;81.60
14489;DHT22;7330;50.804;4.550;2023-03-01T09:39:57;7.40;81.00
14489;DHT22;7330;50.804;4.550;2023-03-01T09:47:21;7.50;80.80
14489;DHT22;7330;50.804;4.550;2023-03-01T09:49:52;7.50;81.00
14489;DHT22;7330;50.804;4.550;2023-03-01T09:52:23;7.60;81.70
14489;DHT22;7330;50.804;4.550;2023-03-01T09:54:52;7.60;80.00
14489;DHT22;7330;50.804;4.550;2023-03-01T10:02:21;7.80;80.20
14489;DHT22;7330;50.804;4.550;2023-03-01T10:04:48;7.90;79.90
14489;DHT22;7330;50.804;4.550;2023-03-01T10:07:19;8.00;79.30
14489;DHT22;7330;50.804;4.550;2023-03-01T10:09:47;8.00;78.40
14489;DHT22;7330;50.804;4.550;2023-03-01T10:12:15;8.10;78.50
14489;DHT22;7330;50.804;4.550;2023-03-01T10:14:44;8.10;77.40
14489;DHT22;7330;50.804;4.550;2023-03-01T10:17:18;8.20;77.50
14489;DHT22;7330;50.804;4.550;2023-03-01T10:19:47;8.20;77.50
14489;DHT22;7330;50.804;4.550;2023-03-01T10:22:15;8.20;76.50
14489;DHT22;7330;50.804;4.550;2023-03-01T10:27:11;8.40;75.90
14489;DHT22;7330;50.804;4.550;2023-03-01T10:29:40;8.30;73.50
14489;DHT22;7330;50.804;4.550;2023-03-01T10:32:10;8.30;74.50
14489;DHT22;7330;50.804;4.550;2023-03-01T10:34:37;8.20;74.10
14489;DHT22;7330;50.804;4.550;2023-03-01T10:37:10;8.10;74.20
14489;DHT22;7330;50.804;4.550;2023-03-01T10:42:04;8.20;72.40
14489;DHT22;7330;50.804;4.550;2023-03-01T10:44:42;8.10;73.30
14489;DHT22;7330;50.804;4.550;2023-03-01T10:47:17;8.10;73.20
14489;DHT22;7330;50.804;4.550;2023-03-01T10:49:52;8.10;73.20
14489;DHT22;7330;50.804;4.550;2023-03-01T10:54:52;8.00;72.10
14489;DHT22;7330;50.804;4.550;2023-03-01T10:57:30;8.10;72.80
14489;DHT22;7330;50.804;4.550;2023-03-01T11:02:26;8.00;71.60
14489;DHT22;7330;50.804;4.550;2023-03-01T11:07:37;8.10;72.20
14489;DHT22;7330;50.804;4.550;2023-03-01T11:10:15;8.10;71.40
14489;DHT22;7330;50.804;4.550;2023-03-01T11:12:43;8.10;72.10
14489;DHT22;7330;50.804;4.550;2023-03-01T11:17:36;8.10;71.70
14489;DHT22;7330;50.804;4.550;2023-03-01T11:22:31;8.20;72.10
14489;DHT22;7330;50.804;4.550;2023-03-01T11:25:01;8.20;71.30
14489;DHT22;7330;50.804;4.550;2023-03-01T11:29:57;8.30;71.40
14489;DHT22;7330;50.804;4.550;2023-03-01T11:32:26;8.40;71.00
14489;DHT22;7330;50.804;4.550;2023-03-01T11:34:54;8.50;71.40
14489;DHT22;7330;50.804;4.550;2023-03-01T11:37:26;8.50;69.90
14489;DHT22;7330;50.804;4.550;2023-03-01T11:44:52;8.40;69.40
14489;DHT22;7330;50.804;4.550;2023-03-01T11:49:56;8.40;69.20
14489;DHT22;7330;50.804;4.550;2023-03-01T11:52:28;8.40;68.20
14489;DHT22;7330;50.804;4.550;2023-03-01T11:55:04;8.40;69.40
14489;DHT22;7330;50.804;4.550;2023-03-01T12:07:42;8.30;69.60
14489;DHT22;7330;50.804;4.550;2023-03-01T12:12:43;8.30;68.70
14489;DHT22;7330;50.804;4.550;2023-03-01T12:15:24;8.30;68.30
14489;DHT22;7330;50.804;4.550;2023-03-01T12:17:57;8.30;68.60
14489;DHT22;7330;50.804;4.550;2023-03-01T12:25:23;8.40;69.80
14489;DHT22;7330;50.804;4.550;2023-03-01T12:27:56;8.30;69.20
14489;DHT22;7330;50.804;4.550;2023-03-01T12:32:56;8.40;67.60
14489;DHT22;7330;50.804;4.550;2023-03-01T12:35:27;8.30;67.40
14489;DHT22;7330;50.804;4.550;2023-03-01T12:37:59;8.30;68.30
14489;DHT22;7330;50.804;4.550;2023-03-01T12:40:40;8.30;68.50
14489;DHT22;7330;50.804;4.550;2023-03-01T12:43:14;8.30;68.20
14489;DHT22;7330;50.804;4.550;2023-03-01T12:45:46;8.40;69.00
14489;DHT22;7330;50.804;4.550;2023-03-01T12:50:42;8.40;68.60
14489;DHT22;7330;50.804;4.550;2023-03-01T12:53:15;8.30;68.20
14489;DHT22;7330;50.804;4.550;2023-03-01T13:00:41;8.40;68.90
14489;DHT22;7330;50.804;4.550;2023-03-01T13:03:14;8.30;68.10
14489;DHT22;7330;50.804;4.550;2023-03-01T13:05:46;8.40;68.00
14489;DHT22;7330;50.804;4.550;2023-03-01T13:08:20;8.30;67.90
14489;DHT22;7330;50.804;4.550;2023-03-01T13:10:53;8.40;68.40
14489;DHT22;7330;50.804;4.550;2023-03-01T13:13:21;8.40;68.50
14489;DHT22;7330;50.804;4.550;2023-03-01T13:15:50;8.40;67.40
14489;DHT22;7330;50.804;4.550;2023-03-01T13:18:27;8.40;67.80
14489;DHT22;7330;50.804;4.550;2023-03-01T13:23:26;8.40;67.50
14489;DHT22;7330;50.804;4.550;2023-03-01T13:28:37;8.40;67.00
14489;DHT22;7330;50.804;4.550;2023-03-01T13:31:07;8.40;67.80
14489;DHT22;7330;50.804;4.550;2023-03-01T13:33:42;8.50;67.40
14489;DHT22;7330;50.804;4.550;2023-03-01T13:36:09;8.50;67.40
14489;DHT22;7330;50.804;4.550;2023-03-01T13:38:44;8.50;66.30
14489;DHT22;7330;50.804;4.550;2023-03-01T13:41:11;8.50;65.30
14489;DHT22;7330;50.804;4.550;2023-03-01T13:43:38;8.40;64.40
14489;DHT22;7330;50.804;4.550;2023-03-01T13:46:11;8.40;65.30
14489;DHT22;7330;50.804;4.550;2023-03-01T13:51:07;8.40;65.20
14489;DHT22;7330;50.804;4.550;2023-03-01T13:53:35;8.30;64.30
14489;DHT22;7330;50.804;4.550;2023-03-01T13:56:06;8.40;64.10
14489;DHT22;7330;50.804;4.550;2023-03-01T13:58:43;8.30;63.60
14489;DHT22;7330;50.804;4.550;2023-03-01T14:01:20;8.30;64.10
14489;DHT22;7330;50.804;4.550;2023-03-01T14:03:47;8.30;64.10
14489;DHT22;7330;50.804;4.550;2023-03-01T14:06:14;8.30;64.50
14489;DHT22;7330;50.804;4.550;2023-03-01T14:08:43;8.30;65.10
14489;DHT22;7330;50.804;4.550;2023-03-01T14:11:20;8.30;64.20
14489;DHT22;7330;50.804;4.550;2023-03-01T14:13:54;8.30;64.40
14489;DHT22;7330;50.804;4.550;2023-03-01T14:16:29;8.40;65.30
14489;DHT22;7330;50.804;4.550;2023-03-01T14:19:03;8.30;65.30
14489;DHT22;7330;50.804;4.550;2023-03-01T14:24:03;8.30;66.70
14489;DHT22;7330;50.804;4.550;2023-03-01T14:26:29;8.40;66.80
14489;DHT22;7330;50.804;4.550;2023-03-01T14:31:34;8.30;66.10
14489;DHT22;7330;50.804;4.550;2023-03-01T14:34:01;8.40;65.30
14489;DHT22;7330;50.804;4.550;2023-03-01T14:36:29;8.30;65.20
14489;DHT22;7330;50.804;4.550;2023-03-01T14:38:56;8.30;65.20
14489;DHT22;7330;50.804;4.550;2023-03-01T14:41:30;8.30;65.70
14489;DHT22;7330;50.804;4.550;2023-03-01T14:43:58;8.40;65.80
14489;DHT22;7330;50.804;4.550;2023-03-01T14:46:26;8.30;65.70
14489;DHT22;7330;50.804;4.550;2023-03-01T14:51:23;8.30;66.30
14489;DHT22;7330;50.804;4.550;2023-03-01T14:53:50;8.30;66.40
14489;DHT22;7330;50.804;4.550;2023-03-01T14:56:18;8.30;65.20
14489;DHT22;7330;50.804;4.550;2023-03-01T14:58:45;8.30;65.80
14489;DHT22;7330;50.804;4.550;2023-03-01T15:01:13;8.30;65.80
14489;DHT22;7330;50.804;4.550;2023-03-01T15:03:41;8.30;65.20
14489;DHT22;7330;50.804;4.550;2023-03-01T15:06:09;8.30;66.10
14489;DHT22;7330;50.804;4.550;2023-03-01T15:08:40;8.30;65.20
14489;DHT22;7330;50.804;4.550;2023-03-01T15:13:34;8.30;65.90
14489;DHT22;7330;50.804;4.550;2023-03-01T15:18:28;8.30;66.60
14489;DHT22;7330;50.804;4.550;2023-03-01T15:20:56;8.40;67.20
14489;DHT22;7330;50.804;4.550;2023-03-01T15:23:31;8.40;66.60
14489;DHT22;7330;50.804;4.550;2023-03-01T15:25:59;8.40;66.60
14489;DHT22;7330;50.804;4.550;2023-03-01T15:30:54;8.30;66.10
14489;DHT22;7330;50.804;4.550;2023-03-01T15:33:29;8.40;65.30
14489;DHT22;7330;50.804;4.550;2023-03-01T15:35:57;8.30;65.20
14489;DHT22;7330;50.804;4.550;2023-03-01T15:40:51;8.30;65.40
14489;DHT22;7330;50.804;4.550;2023-03-01T15:46:00;8.30;65.00
14489;DHT22;7330;50.804;4.550;2023-03-01T15:48:27;8.30;64.10
14489;DHT22;7330;50.804;4.550;2023-03-01T15:50:54;8.30;63.30
14489;DHT22;7330;50.804;4.550;2023-03-01T15:53:22;8.30;63.70
14489;DHT22;7330;50.804;4.550;2023-03-01T15:55:48;8.30;63.90
14489;DHT22;7330;50.804;4.550;2023-03-01T16:03:11;8.20;64.10
14489;DHT22;7330;50.804;4.550;2023-03-01T16:05:38;8.20;64.20
14489;DHT22;7330;50.804;4.550;2023-03-01T16:08:05;8.20;63.50
14489;DHT22;7330;50.804;4.550;2023-03-01T16:12:59;8.20;64.00
14489;DHT22;7330;50.804;4.550;2023-03-01T16:15:27;8.10;64.60
14489;DHT22;7330;50.804;4.550;2023-03-01T16:17:54;8.10;64.90
14489;DHT22;7330;50.804;4.550;2023-03-01T16:22:49;8.10;65.10
14489;DHT22;7330;50.804;4.550;2023-03-01T16:27:43;8.10;66.20
14489;DHT22;7330;50.804;4.550;2023-03-01T16:30:10;8.10;66.50
14489;DHT22;7330;50.804;4.550;2023-03-01T16:32:37;8.10;66.80
14489;DHT22;7330;50.804;4.550;2023-03-01T16:35:04;8.10;66.70
14489;DHT22;7330;50.804;4.550;2023-03-01T16:37:32;8.10;66.50
14489;DHT22;7330;50.804;4.550;2023-03-01T16:40:00;8.00;65.90
14489;DHT22;7330;50.804;4.550;2023-03-01T16:42:27;8.00;65.80
14489;DHT22;7330;50.804;4.550;2023-03-01T16:44:54;8.00;66.00
14489;DHT22;7330;50.804;4.550;2023-03-01T16:47:21;7.90;66.40
14489;DHT22;7330;50.804;4.550;2023-03-01T16:49:51;7.80;66.50
14489;DHT22;7330;50.804;4.550;2023-03-01T16:52:18;7.80;66.50
14489;DHT22;7330;50.804;4.550;2023-03-01T16:54:44;7.80;66.80
14489;DHT22;7330;50.804;4.550;2023-03-01T16:57:12;7.80;66.90
14489;DHT22;7330;50.804;4.550;2023-03-01T17:04:35;7.70;67.10
14489;DHT22;7330;50.804;4.550;2023-03-01T17:09:28;7.60;67.00
14489;DHT22;7330;50.804;4.550;2023-03-01T17:14:24;7.50;67.10
14489;DHT22;7330;50.804;4.550;2023-03-01T17:19:18;7.50;67.50
14489;DHT22;7330;50.804;4.550;2023-03-01T17:24:12;7.40;67.70
14489;DHT22;7330;50.804;4.550;2023-03-01T17:26:39;7.30;67.90
14489;DHT22;7330;50.804;4.550;2023-03-01T17:29:06;7.30;67.90
14489;DHT22;7330;50.804;4.550;2023-03-01T17:36:28;7.20;68.50
14489;DHT22;7330;50.804;4.550;2023-03-01T17:41:21;7.00;68.70
14489;DHT22;7330;50.804;4.550;2023-03-01T17:43:49;7.10;69.30
14489;DHT22;7330;50.804;4.550;2023-03-01T17:48:43;7.00;69.70
14489;DHT22;7330;50.804;4.550;2023-03-01T17:51:10;7.00;69.70
14489;DHT22;7330;50.804;4.550;2023-03-01T17:53:38;6.90;70.00
14489;DHT22;7330;50.804;4.550;2023-03-01T18:01:09;6.90;70.20
14489;DHT22;7330;50.804;4.550;2023-03-01T18:03:37;6.80;70.00
14489;DHT22;7330;50.804;4.550;2023-03-01T18:06:09;6.80;70.40
14489;DHT22;7330;50.804;4.550;2023-03-01T18:08:36;6.80;70.60
14489;DHT22;7330;50.804;4.550;2023-03-01T18:11:04;6.80;70.90
14489;DHT22;7330;50.804;4.550;2023-03-01T18:15:59;6.70;71.00
14489;DHT22;7330;50.804;4.550;2023-03-01T18:18:26;6.70;71.00
14489;DHT22;7330;50.804;4.550;2023-03-01T18:23:20;6.60;71.80
14489;DHT22;7330;50.804;4.550;2023-03-01T18:25:46;6.50;71.80
14489;DHT22;7330;50.804;4.550;2023-03-01T18:30:42;6.50;72.30
14489;DHT22;7330;50.804;4.550;2023-03-01T18:33:08;6.40;72.50
14489;DHT22;7330;50.804;4.550;2023-03-01T18:38:03;6.30;72.70
14489;DHT22;7330;50.804;4.550;2023-03-01T18:45:24;6.30;72.80
14489;DHT22;7330;50.804;4.550;2023-03-01T18:47:52;6.20;73.00
14489;DHT22;7330;50.804;4.550;2023-03-01T18:50:19;6.20;73.10
14489;DHT22;7330;50.804;4.550;2023-03-01T18:57:40;6.10;73.20
14489;DHT22;7330;50.804;4.550;2023-03-01T19:00:07;6.10;73.20
14489;DHT22;7330;50.804;4.550;2023-03-01T19:02:34;6.20;73.40
14489;DHT22;7330;50.804;4.550;2023-03-01T19:09:56;6.10;73.60
14489;DHT22;7330;50.804;4.550;2023-03-01T19:12:23;6.00;73.80
14489;DHT22;7330;50.804;4.550;2023-03-01T19:14:49;6.00;73.80
14489;DHT22;7330;50.804;4.550;2023-03-01T19:19:44;5.90;73.90
14489;DHT22;7330;50.804;4.550;2023-03-01T19:24:37;5.90;74.10
14489;DHT22;7330;50.804;4.550;2023-03-01T19:27:05;5.90;74.30
14489;DHT22;7330;50.804;4.550;2023-03-01T19:34:26;5.80;74.40
14489;DHT22;7330;50.804;4.550;2023-03-01T19:36:53;5.80;74.40
14489;DHT22;7330;50.804;4.550;2023-03-01T19:39:20;5.70;74.50
14489;DHT22;7330;50.804;4.550;2023-03-01T19:44:15;5.60;74.90
14489;DHT22;7330;50.804;4.550;2023-03-01T19:46:41;5.60;74.90
14489;DHT22;7330;50.804;4.550;2023-03-01T19:54:03;5.50;74.80
14489;DHT22;7330;50.804;4.550;2023-03-01T19:56:30;5.50;75.40
14489;DHT22;7330;50.804;4.550;2023-03-01T19:58:57;5.50;75.70
14489;DHT22;7330;50.804;4.550;2023-03-01T20:03:58;5.40;76.00
14489;DHT22;7330;50.804;4.550;2023-03-01T20:18:41;5.30;76.30
14489;DHT22;7330;50.804;4.550;2023-03-01T20:21:10;5.30;76.40
14489;DHT22;7330;50.804;4.550;2023-03-01T20:26:06;5.30;76.60
14489;DHT22;7330;50.804;4.550;2023-03-01T20:31:01;5.20;76.70
14489;DHT22;7330;50.804;4.550;2023-03-01T20:33:28;5.20;76.90
14489;DHT22;7330;50.804;4.550;2023-03-01T20:35:55;5.20;76.90
14489;DHT22;7330;50.804;4.550;2023-03-01T20:38:23;5.20;77.00
14489;DHT22;7330;50.804;4.550;2023-03-01T20:43:17;5.10;77.00
14489;DHT22;7330;50.804;4.550;2023-03-01T20:45:44;5.10;77.30
14489;DHT22;7330;50.804;4.550;2023-03-01T20:48:10;5.10;77.40
14489;DHT22;7330;50.804;4.550;2023-03-01T20:50:39;5.10;77.40
14489;DHT22;7330;50.804;4.550;2023-03-01T20:53:05;5.10;77.30
14489;DHT22;7330;50.804;4.550;2023-03-01T20:58:00;5.10;77.40
14489;DHT22;7330;50.804;4.550;2023-03-01T21:00:27;5.00;77.50
14489;DHT22;7330;50.804;4.550;2023-03-01T21:02:54;5.00;77.70
14489;DHT22;7330;50.804;4.550;2023-03-01T21:12:42;5.00;78.10
14489;DHT22;7330;50.804;4.550;2023-03-01T21:17:37;5.00;78.20
14489;DHT22;7330;50.804;4.550;2023-03-01T21:20:04;4.90;78.20
14489;DHT22;7330;50.804;4.550;2023-03-01T21:22:31;4.90;78.40
14489;DHT22;7330;50.804;4.550;2023-03-01T21:32:20;4.80;78.30
14489;DHT22;7330;50.804;4.550;2023-03-01T21:34:48;4.70;78.30
14489;DHT22;7330;50.804;4.550;2023-03-01T21:39:43;4.70;78.30
14489;DHT22;7330;50.804;4.550;2023-03-01T21:42:10;4.70;78.10
14489;DHT22;7330;50.804;4.550;2023-03-01T21:51:59;4.60;78.40
14489;DHT22;7330;50.804;4.550;2023-03-01T21:54:26;4.60;78.40
14489;DHT22;7330;50.804;4.550;2023-03-01T21:56:53;4.50;78.60
14489;DHT22;7330;50.804;4.550;2023-03-01T21:59:20;4.50;78.60
14489;DHT22;7330;50.804;4.550;2023-03-01T22:01:48;4.40;78.70